createdAt,value
2023-10-07T00:01:52.024Z,14.77
2023-10-07T00:11:55.787Z,18.95
2023-10-07T00:22:00.777Z,14.80
2023-10-07T00:32:05.925Z,22.15
2023-10-07T00:42:11.324Z,14.70
2023-10-07T00:52:28.820Z,15.02
2023-10-07T01:02:34.762Z,17.17
2023-10-07T01:12:40.176Z,15.57
2023-10-07T01:23:04.064Z,17.17
2023-10-07T01:33:20.197Z,22.30
2023-10-07T01:43:25.872Z,21.42
2023-10-07T01:53:29.210Z,25.83
2023-10-07T02:03:34.215Z,25.60
2023-10-07T02:13:37.270Z,25.40
2023-10-07T02:23:44.093Z,25.40
2023-10-07T02:33:47.888Z,35.25
2023-10-07T02:43:52.312Z,21.53
2023-10-07T02:54:01.209Z,27.35
2023-10-07T03:04:12.273Z,33.13
2023-10-07T03:14:25.129Z,38.50
2023-10-07T03:24:42.444Z,34.55
2023-10-07T03:34:47.144Z,36.10
2023-10-07T03:44:51.846Z,35.67
2023-10-07T04:05:11.667Z,39.78
2023-10-07T04:15:18.313Z,33.75
2023-10-07T04:25:23.535Z,51.38
2023-10-07T04:35:32.263Z,39.47
2023-10-07T04:45:50.522Z,36.03
2023-10-07T04:56:02.954Z,33.25
2023-10-07T05:06:07.769Z,32.80
2023-10-07T05:16:10.786Z,29.70
2023-10-07T05:26:18.673Z,28.40
2023-10-07T05:36:31.069Z,29.60
2023-10-07T05:46:36.378Z,26.13
2023-10-07T05:56:40.754Z,28.27
2023-10-07T06:06:45.120Z,36.35
2023-10-07T06:16:48.142Z,27.30
2023-10-07T06:26:54.852Z,27.85
2023-10-07T06:36:58.139Z,24.30
2023-10-07T06:47:03.958Z,24.90
2023-10-07T06:57:11.360Z,24.70
2023-10-07T07:07:17.598Z,23.08
2023-10-07T07:17:44.903Z,23.00
2023-10-07T07:27:49.983Z,18.67
2023-10-07T07:37:52.977Z,17.15
2023-10-07T07:47:58.126Z,32.65
2023-10-07T07:58:03.943Z,18.67
2023-10-07T08:08:19.961Z,27.00
2023-10-07T08:18:30.325Z,20.33
2023-10-07T08:28:43.797Z,17.85
2023-10-07T08:38:51.330Z,22.08
2023-10-07T08:48:58.809Z,15.93
2023-10-07T08:59:02.187Z,19.23
2023-10-07T09:09:07.932Z,12.07
2023-10-07T09:19:21.184Z,16.63
2023-10-07T09:29:28.700Z,20.40
2023-10-07T09:39:35.783Z,20.33
2023-10-07T09:49:40.241Z,10.88
2023-10-07T09:59:59.060Z,17.67
2023-10-07T10:10:08.655Z,15.75
2023-10-07T10:20:14.496Z,13.63
2023-10-07T10:30:25.577Z,14.25
2023-10-07T10:40:32.878Z,12.75
2023-10-07T10:50:37.313Z,16.52
2023-10-07T11:00:50.170Z,17.25
2023-10-07T11:10:58.491Z,20.20
2023-10-07T11:21:03.534Z,12.80
2023-10-07T11:31:08.368Z,15.02
2023-10-07T12:21:42.441Z,13.48
2023-10-07T12:42:00.274Z,14.93
2023-10-07T12:52:10.425Z,17.48
2023-10-07T13:02:19.667Z,14.30
2023-10-07T13:12:25.587Z,13.23
2023-10-07T13:22:36.637Z,19.55
